Terminal Aerodrome Forecast
Issued by NWS Amarillo, TX

Home | Current Version | Previous Version | Text Only | Print | Product List | Glossary On
Versions: 1 2 3 4 5 6 7 8 9 10 11 12
484
FTUS44 KAMA 242331
TAFAMA
TAF
KAMA 242331Z 2500/2524 30009KT P6SM BKN250
     FM250200 01008KT P6SM SCT250
     FM250800 01016KT P6SM SCT250
     FM251800 04007KT P6SM FEW250=

USA.gov is the U.S. government's official web portal to all federal, state and local government web resources and services.